Anl Warragul — A8UL6 — position and weather

sailwx.info

Track history (hours):
 
Tides and Currents Weather Stations Pressure Air Temp Water Temp Dewpoint Dewpoint Depression Visibility Wind Speed Wind Dir Waves Ship Positions

Anl Warragul

Last reported at 2017-Dec-11 16:59 UTC. Time now 2017-Dec-12 06:46 UTC.
Position S 38°52' E 147°57'.

Length 262 m; draft 8.9 m.

Type: Cargo ship. MMSI: 636091912.

Date/timePositionNaut miles runAvg speedWind from/ knotsBaromVisibWave heightAir tempDewpointWater temp
2017-Dec-11 16:59S 38°52' E 147°57'510.6
2017-Dec-11 16:29S 38°54' E 147°51'510.6
2017-Dec-11 16:00S 38°56' E 147°45'510.8
2017-Dec-11 15:30S 38°58' E 147°38'611.1
2017-Dec-11 15:00S 38°60' E 147°31'611.3
2017-Dec-11 14:30S 39°02' E 147°25'611.7
2017-Dec-11 13:59S 39°04' E 147°17'1011.9
2017-Dec-11 13:10S 39°08' E 147°06'412.0
2017-Dec-11 12:51S 39°09' E 147°01'512.2
2017-Dec-11 12:29S 39°11' E 146°56'3011.6
2017-Dec-11 09:54S 39°17' E 146°18'107 9.2
2017-Dec-10 22:18S 37°52' E 144°55'3 0.4
2017-Dec-10 14:53S 37°49' E 144°55'0 0.0
2017-Dec-10 14:26S 37°49' E 144°55'0 0.0
2017-Dec-10 13:50S 37°49' E 144°55'0 0.0
2017-Dec-10 13:23S 37°49' E 144°55'0 0.0
2017-Dec-10 07:08S 37°49' E 144°55'0 0.0
2017-Dec-10 06:41S 37°49' E 144°55'0 0.2
2017-Dec-10 06:29S 37°49' E 144°55'0 0.0
2017-Dec-09 15:11S 37°49' E 144°55'0 0.0
2017-Dec-09 14:59S 37°49' E 144°55'0 0.0
2017-Dec-09 14:02S 37°49' E 144°55'0 0.0
2017-Dec-09 13:53S 37°49' E 144°55'0 0.0
2017-Dec-09 10:49S 37°49' E 144°55'1 1.2
2017-Dec-09 10:19S 37°49' E 144°55'2 4.8
2017-Dec-09 09:58S 37°51' E 144°54'5 9.4
2017-Dec-09 09:29S 37°55' E 144°56'713.5
2017-Dec-09 08:59S 38°02' E 144°56'815.6
2017-Dec-09 08:29S 38°10' E 144°55'73 8.5
2017-Dec-09 00:00S 39°06' E 145°54'27111.8 270 / 261017.610.8 18.016.421.0
2017-Dec-08 01:00S 38°18' E 151°36'11912.7 230 / 301009.510.8 22.019.025.0
2017-Dec-07 15:41S 37°53' E 154°03'313.6
2017-Dec-07 15:30S 37°52' E 154°06'713.7
2017-Dec-07 15:00S 37°50' E 154°15'1913.1
2017-Dec-07 13:34S 37°46' E 154°38'512.0
2017-Dec-07 13:11S 37°45' E 154°43'211.9
2017-Dec-07 13:00S 37°44' E 154°46'15411.8
2017-Dec-07 00:00S 37°06' E 157°54'32313.5 010 / 111007.510.8 22.019.024.0
2017-Dec-06 00:00S 35°48' E 164°24'50913.6 070 / 181015.510.8 21.516.124.0
2017-Dec-04 10:30S 36°43' E 174°52'5 9.5
2017-Dec-04 10:00S 36°47' E 174°49'4 6.5
2017-Dec-04 09:24S 36°50' E 174°47'0 0.5
2017-Dec-04 08:57S 36°51' E 174°47'0 0.0
2017-Dec-04 07:03S 36°51' E 174°47'0 0.0
2017-Dec-04 06:51S 36°51' E 174°47'0 0.0
2017-Dec-04 06:09S 36°51' E 174°47'0 0.0
2017-Dec-04 05:51S 36°51' E 174°47'0 0.0
2017-Dec-04 05:30S 36°51' E 174°47'0 0.0
2017-Dec-04 04:34S 36°51' E 174°47'0 0.1
2017-Dec-04 04:27S 36°51' E 174°47'0 0.0
2017-Dec-04 04:00S 36°51' E 174°47'0 0.0
2017-Dec-04 03:24S 36°51' E 174°47'0 0.0
2017-Dec-04 03:00S 36°51' E 174°47'0 0.0
2017-Dec-04 02:28S 36°51' E 174°47'0 0.0
2017-Dec-04 01:59S 36°51' E 174°47'0 0.0
2017-Dec-04 01:27S 36°51' E 174°47'0 0.0
2017-Dec-04 00:44S 36°51' E 174°47'0 0.0
2017-Dec-04 00:28S 36°51' E 174°47'0 0.0
2017-Dec-04 00:00S 36°51' E 174°47'0 0.0
2017-Dec-03 23:30S 36°51' E 174°47'0 0.0
2017-Dec-03 23:00S 36°51' E 174°47'0 0.0
2017-Dec-03 22:27S 36°51' E 174°47'0 0.0
2017-Dec-03 21:50S 36°51' E 174°47'0 0.0
2017-Dec-03 21:21S 36°51' E 174°47'0 0.0
2017-Dec-03 21:00S 36°51' E 174°47'0 0.0
2017-Dec-03 20:30S 36°51' E 174°47'0 0.0
2017-Dec-03 20:00S 36°51' E 174°47'1 1.7
2017-Dec-03 19:30S 36°50' E 174°48'2 4.8
2017-Dec-03 19:00S 36°48' E 174°49'4 7.3
2017-Dec-03 18:30S 36°45' E 174°50'3 7.0
2017-Dec-03 18:00S 36°42' E 174°53'1 1.9
2017-Dec-03 17:30S 36°41' E 174°53'4 8.0
2017-Dec-03 17:00S 36°38' E 174°57'4 8.4
2017-Dec-03 16:30S 36°35' E 175°01'5 9.6
2017-Dec-03 16:00S 36°32' E 175°06'5 9.3
2017-Dec-03 15:30S 36°29' E 175°10'5 9.4
2017-Dec-03 15:00S 36°26' E 175°15'6 9.4
2017-Dec-03 14:22S 36°23' E 175°21'4 9.8
2017-Dec-03 14:00S 36°23' E 175°25'2312.2
2017-Dec-03 12:09S 36°15' E 175°51'316.1
2017-Dec-03 11:59S 36°13' E 175°54'  
Track history (hours):
 
Tides and Currents Weather Stations Pressure Air Temp Water Temp Dewpoint Dewpoint Depression Visibility Wind Speed Wind Dir Waves Ship Positions

Anl Warragul

Last reported at 2017-Dec-11 16:59 UTC. Time now 2017-Dec-12 06:46 UTC.
Position S 38°52' E 147°57'.

Length 262 m; draft 8.9 m.

Type: Cargo ship. MMSI: 636091912.

Date/timePositionNaut miles runAvg speedWind from/ knotsBaromVisibWave heightAir tempDewpointWater temp
2017-Dec-11 16:59S 38°52' E 147°57'510.6
2017-Dec-11 16:29S 38°54' E 147°51'510.6
2017-Dec-11 16:00S 38°56' E 147°45'510.8
2017-Dec-11 15:30S 38°58' E 147°38'611.1
2017-Dec-11 15:00S 38°60' E 147°31'611.3
2017-Dec-11 14:30S 39°02' E 147°25'611.7
2017-Dec-11 13:59S 39°04' E 147°17'1011.9
2017-Dec-11 13:10S 39°08' E 147°06'412.0
2017-Dec-11 12:51S 39°09' E 147°01'512.2
2017-Dec-11 12:29S 39°11' E 146°56'3011.6
2017-Dec-11 09:54S 39°17' E 146°18'107 9.2
2017-Dec-10 22:18S 37°52' E 144°55'3 0.4
2017-Dec-10 14:53S 37°49' E 144°55'0 0.0
2017-Dec-10 14:26S 37°49' E 144°55'0 0.0
2017-Dec-10 13:50S 37°49' E 144°55'0 0.0
2017-Dec-10 13:23S 37°49' E 144°55'0 0.0
2017-Dec-10 07:08S 37°49' E 144°55'0 0.0
2017-Dec-10 06:41S 37°49' E 144°55'0 0.2
2017-Dec-10 06:29S 37°49' E 144°55'0 0.0
2017-Dec-09 15:11S 37°49' E 144°55'0 0.0
2017-Dec-09 14:59S 37°49' E 144°55'0 0.0
2017-Dec-09 14:02S 37°49' E 144°55'0 0.0
2017-Dec-09 13:53S 37°49' E 144°55'0 0.0
2017-Dec-09 10:49S 37°49' E 144°55'1 1.2
2017-Dec-09 10:19S 37°49' E 144°55'2 4.8
2017-Dec-09 09:58S 37°51' E 144°54'5 9.4
2017-Dec-09 09:29S 37°55' E 144°56'713.5
2017-Dec-09 08:59S 38°02' E 144°56'815.6
2017-Dec-09 08:29S 38°10' E 144°55'73 8.5
2017-Dec-09 00:00S 39°06' E 145°54'27111.8 270 / 261017.610.8 18.016.421.0
2017-Dec-08 01:00S 38°18' E 151°36'11912.7 230 / 301009.510.8 22.019.025.0
2017-Dec-07 15:41S 37°53' E 154°03'313.6
2017-Dec-07 15:30S 37°52' E 154°06'713.7
2017-Dec-07 15:00S 37°50' E 154°15'1913.1
2017-Dec-07 13:34S 37°46' E 154°38'512.0
2017-Dec-07 13:11S 37°45' E 154°43'211.9
2017-Dec-07 13:00S 37°44' E 154°46'15411.8
2017-Dec-07 00:00S 37°06' E 157°54'32313.5 010 / 111007.510.8 22.019.024.0
2017-Dec-06 00:00S 35°48' E 164°24'50913.6 070 / 181015.510.8 21.516.124.0
2017-Dec-04 10:30S 36°43' E 174°52'5 9.5
2017-Dec-04 10:00S 36°47' E 174°49'4 6.5
2017-Dec-04 09:24S 36°50' E 174°47'0 0.5
2017-Dec-04 08:57S 36°51' E 174°47'0 0.0
2017-Dec-04 07:03S 36°51' E 174°47'0 0.0
2017-Dec-04 06:51S 36°51' E 174°47'0 0.0
2017-Dec-04 06:09S 36°51' E 174°47'0 0.0
2017-Dec-04 05:51S 36°51' E 174°47'0 0.0
2017-Dec-04 05:30S 36°51' E 174°47'0 0.0
2017-Dec-04 04:34S 36°51' E 174°47'0 0.1
2017-Dec-04 04:27S 36°51' E 174°47'0 0.0
2017-Dec-04 04:00S 36°51' E 174°47'0 0.0
2017-Dec-04 03:24S 36°51' E 174°47'0 0.0
2017-Dec-04 03:00S 36°51' E 174°47'0 0.0
2017-Dec-04 02:28S 36°51' E 174°47'0 0.0
2017-Dec-04 01:59S 36°51' E 174°47'0 0.0
2017-Dec-04 01:27S 36°51' E 174°47'0 0.0
2017-Dec-04 00:44S 36°51' E 174°47'0 0.0
2017-Dec-04 00:28S 36°51' E 174°47'0 0.0
2017-Dec-04 00:00S 36°51' E 174°47'0 0.0
2017-Dec-03 23:30S 36°51' E 174°47'0 0.0
2017-Dec-03 23:00S 36°51' E 174°47'0 0.0
2017-Dec-03 22:27S 36°51' E 174°47'0 0.0
2017-Dec-03 21:50S 36°51' E 174°47'0 0.0
2017-Dec-03 21:21S 36°51' E 174°47'0 0.0
2017-Dec-03 21:00S 36°51' E 174°47'0 0.0
2017-Dec-03 20:30S 36°51' E 174°47'0 0.0
2017-Dec-03 20:00S 36°51' E 174°47'1 1.7
2017-Dec-03 19:30S 36°50' E 174°48'2 4.8
2017-Dec-03 19:00S 36°48' E 174°49'4 7.3
2017-Dec-03 18:30S 36°45' E 174°50'3 7.0
2017-Dec-03 18:00S 36°42' E 174°53'1 1.9
2017-Dec-03 17:30S 36°41' E 174°53'4 8.0
2017-Dec-03 17:00S 36°38' E 174°57'4 8.4
2017-Dec-03 16:30S 36°35' E 175°01'5 9.6
2017-Dec-03 16:00S 36°32' E 175°06'5 9.3
2017-Dec-03 15:30S 36°29' E 175°10'5 9.4
2017-Dec-03 15:00S 36°26' E 175°15'6 9.4
2017-Dec-03 14:22S 36°23' E 175°21'4 9.8
2017-Dec-03 14:00S 36°23' E 175°25'2312.2
2017-Dec-03 12:09S 36°15' E 175°51'316.1
2017-Dec-03 11:59S 36°13' E 175°54'  

Dump ship's entire track history